Time;durP1;ratioP1;P1;durP2;ratioP2;P2;SDS_P1;SDS_P2;PMS_P1;PMS_P2;Temp;Humidity;BMP_temperature;BMP_pressure;BME280_temperature;BME280_humidity;BME280_pressure;Samples;Min_cycle;Max_cycle;Signal;HPM_P1;HPM_P2
2022/06/05 00:02:01;;;;;;;10.55;5.53;;;;;;;9.45;54.86;102231.38;4948054;28;20046;-78
2022/06/05 00:04:33;;;;;;;10.40;7.28;;;;;;;9.35;54.80;102225.44;4974196;28;20047;-78
2022/06/05 00:07:04;;;;;;;16.73;8.77;;;;;;;9.34;55.78;102228.06;4961313;28;20038;-76
2022/06/05 00:09:45;;;;;;;13.13;8.40;;;;;;;9.52;55.15;102232.16;4962701;28;20057;-76
2022/06/05 00:12:18;;;;;;;11.68;8.10;;;;;;;9.55;54.94;102221.72;4959943;28;20053;-78
2022/06/05 00:14:44;;;;;;;14.30;8.65;;;;;;;9.50;54.93;102215.66;4957826;28;20042;-77
2022/06/05 00:17:20;;;;;;;15.93;9.60;;;;;;;9.48;55.05;102220.94;4959083;28;20907;-78
2022/06/05 00:19:50;;;;;;;15.07;7.78;;;;;;;9.47;55.03;102218.34;4973407;28;20130;-79
2022/06/05 00:22:16;;;;;;;15.70;7.05;;;;;;;9.46;54.85;102221.84;4955062;28;20031;-78
2022/06/05 00:24:42;;;;;;;10.38;6.50;;;;;;;9.43;55.01;102222.72;4955991;28;20042;-77
2022/06/05 00:27:19;;;;;;;9.68;5.60;;;;;;;9.43;55.16;102217.50;4963633;28;20039;-76
2022/06/05 00:30:01;;;;;;;15.45;5.65;;;;;;;9.47;54.98;102208.75;4961104;28;20122;-77
2022/06/05 00:32:41;;;;;;;5.78;4.53;;;;;;;9.45;54.96;102204.44;4972227;28;20160;-77
2022/06/05 00:35:09;;;;;;;6.70;4.40;;;;;;;9.43;55.12;102201.00;4960105;28;20039;-77
2022/06/05 00:37:47;;;;;;;8.15;5.32;;;;;;;9.39;55.33;102195.81;4955552;28;20043;-76
2022/06/05 00:40:30;;;;;;;7.97;6.03;;;;;;;9.28;55.09;102197.72;4958408;28;20129;-78
2022/06/05 00:42:57;;;;;;;11.27;5.57;;;;;;;9.20;55.97;102191.72;4943365;28;20055;-77
2022/06/05 00:45:27;;;;;;;14.27;6.65;;;;;;;9.07;56.45;102177.13;4945014;28;20035;-76
2022/06/05 00:47:52;;;;;;;9.35;5.55;;;;;;;9.25;56.02;102181.22;4970735;28;20058;-77
2022/06/05 00:50:23;;;;;;;14.25;7.28;;;;;;;9.22;56.05;102182.13;4953798;28;20038;-80
2022/06/05 00:52:55;;;;;;;9.43;4.97;;;;;;;9.24;56.28;102177.75;4961088;28;20078;-76
2022/06/05 00:55:23;;;;;;;13.57;6.22;;;;;;;9.23;55.96;102173.44;4946491;28;20425;-75
2022/06/05 00:57:49;;;;;;;11.18;6.80;;;;;;;9.20;55.81;102163.03;4951302;28;20046;-78
2022/06/05 01:00:42;;;;;;;12.02;6.97;;;;;;;9.26;56.21;102165.56;4975584;28;20319;-76
2022/06/05 01:03:10;;;;;;;12.80;6.07;;;;;;;9.28;56.08;102165.56;4964419;28;20101;-79
2022/06/05 01:05:37;;;;;;;13.57;6.18;;;;;;;9.34;56.33;102162.84;4977934;28;20110;-78
2022/06/05 01:08:03;;;;;;;12.90;7.28;;;;;;;9.36;56.06;102155.84;4951693;28;20042;-78
2022/06/05 01:11:10;;;;;;;12.45;7.70;;;;;;;9.43;55.92;102147.03;4946772;28;20089;-76
2022/06/05 01:13:42;;;;;;;11.02;6.85;;;;;;;9.23;56.14;102146.47;4964744;28;20536;-74
2022/06/05 01:16:07;;;;;;;;;;;;;;;9.29;56.28;102146.38;4978097;28;20027;-76
2022/06/05 01:18:46;;;;;;;12.60;7.50;;;;;;;9.28;56.31;102140.31;4980456;28;20664;-79
2022/06/05 01:21:43;;;;;;;13.70;5.93;;;;;;;9.27;56.92;102141.19;4964075;28;20031;-79
2022/06/05 01:24:27;;;;;;;9.75;5.90;;;;;;;9.37;56.27;102145.41;4963916;28;20031;-76
2022/06/05 01:26:57;;;;;;;10.57;5.57;;;;;;;9.39;56.36;102151.47;4978001;28;20035;-78
2022/06/05 01:29:42;;;;;;;15.73;5.90;;;;;;;9.31;56.90;102155.91;4960602;28;20082;-76
2022/06/05 01:32:11;;;;;;;13.55;6.47;;;;;;;9.36;56.34;102148.88;4961476;28;20038;-78
2022/06/05 01:34:47;;;;;;;8.73;4.57;;;;;;;9.43;56.23;102138.34;4977663;28;20041;-77
2022/06/05 01:37:27;;;;;;;9.18;5.85;;;;;;;9.27;56.58;102133.34;4961833;28;20039;-76
2022/06/05 01:40:02;;;;;;;11.77;5.47;;;;;;;9.36;56.64;102133.22;4976360;28;20077;-76
2022/06/05 01:42:48;;;;;;;12.20;5.63;;;;;;;9.40;56.39;102129.69;4963032;28;20043;-78
2022/06/05 01:45:34;;;;;;;13.32;5.50;;;;;;;9.27;57.36;102120.31;4952111;28;20030;-78
2022/06/05 01:48:00;;;;;;;10.98;6.03;;;;;;;9.40;56.72;102128.84;4947021;28;20074;-77
2022/06/05 01:50:44;;;;;;;10.45;5.97;;;;;;;9.46;56.63;102112.22;4978964;28;20133;-78
2022/06/05 01:53:18;;;;;;;8.45;5.57;;;;;;;9.45;56.54;102107.88;4962023;28;20119;-78
2022/06/05 01:55:50;;;;;;;13.93;5.95;;;;;;;9.43;56.91;102107.03;4958974;28;20042;-79
2022/06/05 01:58:19;;;;;;;10.05;5.07;;;;;;;9.50;56.39;102099.09;4958561;28;20046;-77
2022/06/05 02:00:56;;;;;;;7.28;5.10;;;;;;;9.45;57.00;102100.91;4977708;28;20360;-77
2022/06/05 02:03:33;;;;;;;6.43;4.32;;;;;;;9.52;56.57;102097.34;4960921;28;20082;-79
2022/06/05 02:06:18;;;;;;;8.23;4.93;;;;;;;9.60;56.74;102105.88;4974788;28;20035;-78
2022/06/05 02:08:49;;;;;;;8.63;5.47;;;;;;;9.53;56.61;102100.81;4972504;28;20051;-78
2022/06/05 02:11:20;;;;;;;10.43;5.63;;;;;;;9.50;56.53;102095.63;4973006;28;20027;-77
2022/06/05 02:13:46;;;;;;;6.88;4.85;;;;;;;9.48;56.84;102098.28;4961403;28;20062;-77
2022/06/05 02:16:12;;;;;;;11.93;5.20;;;;;;;9.53;56.71;102098.19;4972163;28;20469;-76
2022/06/05 02:18:38;;;;;;;7.80;5.60;;;;;;;9.50;56.79;102093.88;4971426;28;20046;-78
2022/06/05 02:21:04;;;;;;;13.18;4.65;;;;;;;9.54;57.04;102099.91;4956795;28;20659;-78
2022/06/05 02:23:33;;;;;;;9.93;6.10;;;;;;;9.47;56.89;102090.47;4973585;28;20067;-77
2022/06/05 02:26:01;;;;;;;7.50;4.90;;;;;;;9.51;56.81;102097.34;4962655;28;20481;-78
2022/06/05 02:28:27;;;;;;;7.75;5.60;;;;;;;9.53;56.83;102103.41;4970597;28;20047;-78
2022/06/05 02:31:10;;;;;;;15.95;6.05;;;;;;;9.58;56.87;102093.75;4962217;28;20070;-79
2022/06/05 02:33:51;;;;;;;10.55;5.57;;;;;;;9.53;56.61;102088.59;4973920;28;20227;-79
2022/06/05 02:36:36;;;;;;;8.25;5.78;;;;;;;9.53;56.76;102078.16;4958125;28;20653;-77
2022/06/05 02:39:20;;;;;;;10.13;6.47;;;;;;;9.44;56.91;102072.25;4972899;28;20043;-79
2022/06/05 02:42:01;;;;;;;7.35;5.45;;;;;;;9.46;56.88;102066.13;4963890;28;20030;-77
2022/06/05 02:44:41;;;;;;;11.55;6.13;;;;;;;9.50;57.22;102066.91;4953241;28;20058;-78
2022/06/05 02:47:16;;;;;;;15.68;5.70;;;;;;;9.46;56.93;102070.47;4956560;28;20046;-76
2022/06/05 02:49:42;;;;;;;14.27;5.68;;;;;;;9.49;57.07;102066.06;4973457;28;20096;-77
2022/06/05 02:52:09;;;;;;;12.52;6.03;;;;;;;9.46;56.96;102065.25;4971236;28;20039;-78
2022/06/05 02:55:04;;;;;;;10.82;6.30;;;;;;;9.44;57.05;102067.88;4964770;28;20043;-77
2022/06/05 02:57:30;;;;;;;10.70;6.30;;;;;;;9.43;57.23;102065.28;4942089;28;20046;-78
2022/06/05 02:59:56;;;;;;;12.38;6.43;;;;;;;9.40;57.55;102069.66;4962548;28;20061;-78
2022/06/05 03:05:06;;;;;;;11.02;6.72;;;;;;;9.59;57.65;102061.56;4972587;28;20071;-77
2022/06/05 03:07:31;;;;;;;10.80;6.38;;;;;;;9.73;57.39;102056.09;4970383;28;20063;-77
2022/06/05 03:09:57;;;;;;;10.05;6.13;;;;;;;9.76;57.19;102063.84;4958679;28;20058;-78
2022/06/05 03:12:22;;;;;;;11.25;6.35;;;;;;;9.87;56.94;102067.16;4958477;28;20131;-78
2022/06/05 03:14:48;;;;;;;13.27;6.25;;;;;;;9.93;56.66;102061.00;4972455;28;20035;-78
2022/06/05 03:17:14;;;;;;;12.27;6.93;;;;;;;9.93;56.88;102063.59;4967871;28;20101;-76
2022/06/05 03:19:41;;;;;;;10.85;6.68;;;;;;;10.03;56.67;102065.13;4969589;28;20041;-77
2022/06/05 03:22:07;;;;;;;12.75;7.10;;;;;;;10.11;56.83;102071.09;4952674;28;20031;-76
2022/06/05 03:24:33;;;;;;;11.13;6.10;;;;;;;10.14;56.89;102070.16;4941816;28;20058;-78
2022/06/05 03:26:58;;;;;;;12.15;7.05;;;;;;;10.21;56.67;102070.03;4943375;28;20030;-77
2022/06/05 03:29:24;;;;;;;9.85;6.50;;;;;;;10.32;56.34;102074.16;4958884;28;20050;-78
2022/06/05 03:31:50;;;;;;;10.23;7.03;;;;;;;10.34;56.36;102075.00;4969463;28;20042;-77
2022/06/05 03:34:17;;;;;;;15.07;7.72;;;;;;;10.32;56.21;102069.78;4942503;28;20045;-75
2022/06/05 03:36:43;;;;;;;13.10;6.65;;;;;;;10.34;56.18;102072.38;4970747;28;20133;-77
2022/06/05 03:39:10;;;;;;;14.18;7.25;;;;;;;10.33;56.32;102055.00;4956886;28;20109;-80
2022/06/05 03:41:36;;;;;;;13.20;7.95;;;;;;;10.48;56.38;102041.63;4972638;28;20039;-76
2022/06/05 03:44:01;;;;;;;10.82;6.93;;;;;;;10.62;55.75;102030.88;4955571;28;20061;-78
2022/06/05 03:46:27;;;;;;;16.05;7.68;;;;;;;10.50;56.23;102021.50;4956405;28;20126;-78
2022/06/05 03:48:52;;;;;;;13.25;7.97;;;;;;;10.58;55.62;102027.44;4947298;28;20520;-76
2022/06/05 03:51:20;;;;;;;12.07;7.40;;;;;;;10.70;55.41;102023.69;4965856;28;20027;-78
2022/06/05 03:53:46;;;;;;;13.77;7.78;;;;;;;10.75;55.89;102023.59;4973245;28;20047;-77
2022/06/05 03:56:15;;;;;;;13.85;8.45;;;;;;;10.88;55.53;102018.97;4956870;28;20050;-78
2022/06/05 03:58:42;;;;;;;14.32;7.75;;;;;;;10.90;54.84;102015.44;4970514;28;20045;-78
2022/06/05 04:01:09;;;;;;;13.82;7.65;;;;;;;11.00;54.81;102016.94;4956109;28;20106;-78
2022/06/05 04:03:35;;;;;;;15.70;8.20;;;;;;;10.97;54.74;102010.91;4958245;28;20043;-78
2022/06/05 04:06:04;;;;;;;15.90;7.97;;;;;;;11.12;55.16;101994.00;4943687;28;20085;-78
2022/06/05 04:08:29;;;;;;;14.07;8.35;;;;;;;11.24;54.83;101993.69;4955810;28;20043;-77
2022/06/05 04:10:55;;;;;;;14.70;8.45;;;;;;;11.28;55.17;101995.31;4962188;28;20208;-78
2022/06/05 04:13:20;;;;;;;10.70;7.47;;;;;;;11.36;55.06;102003.84;4974425;28;20798;-79
2022/06/05 04:15:46;;;;;;;17.88;8.70;;;;;;;11.60;54.38;102006.75;4957866;28;20034;-80
2022/06/05 04:18:11;;;;;;;15.35;7.32;;;;;;;11.57;54.13;102001.59;4956418;28;20628;-78
2022/06/05 04:20:38;;;;;;;18.05;8.75;;;;;;;11.68;54.44;102000.38;4957276;28;20038;-77
2022/06/05 04:23:04;;;;;;;12.82;8.13;;;;;;;11.96;54.03;102010.16;4939191;28;20039;-77
2022/06/05 04:25:30;;;;;;;13.20;8.32;;;;;;;12.11;53.34;102014.13;4970670;28;20122;-78
2022/06/05 04:27:56;;;;;;;14.80;7.80;;;;;;;12.19;53.00;102000.78;4959180;28;20066;-76
2022/06/05 04:30:26;;;;;;;11.10;7.28;;;;;;;12.27;52.94;101997.03;4959763;28;20034;-79
2022/06/05 04:32:52;;;;;;;15.88;7.40;;;;;;;12.44;52.82;101993.91;4956590;28;20043;-76
2022/06/05 04:35:18;;;;;;;11.18;6.90;;;;;;;12.60;52.89;101993.44;4946392;28;20544;-77
2022/06/05 04:37:43;;;;;;;12.32;7.75;;;;;;;12.68;51.93;101988.81;4941105;28;20627;-76
2022/06/05 04:40:09;;;;;;;10.80;6.75;;;;;;;12.77;52.11;101983.31;4960543;28;20973;-78
2022/06/05 04:42:36;;;;;;;14.63;8.23;;;;;;;12.80;51.56;101982.34;4973866;28;20129;-76
2022/06/05 04:45:03;;;;;;;17.85;8.45;;;;;;;12.65;51.05;101974.03;4957576;28;20049;-76
2022/06/05 04:47:29;;;;;;;12.25;7.53;;;;;;;12.69;51.50;101969.56;4959858;28;20105;-78
2022/06/05 04:49:55;;;;;;;10.98;7.88;;;;;;;12.73;50.76;101976.44;4955247;28;20490;-77
2022/06/05 04:52:20;;;;;;;11.60;7.32;;;;;;;12.63;50.91;101975.84;4956073;28;20105;-78
2022/06/05 04:54:46;;;;;;;13.18;7.28;;;;;;;12.89;50.29;101980.31;4959245;28;20082;-78
2022/06/05 04:57:11;;;;;;;10.48;6.72;;;;;;;13.03;49.93;101987.75;4954140;28;20043;-77
2022/06/05 04:59:37;;;;;;;13.07;7.90;;;;;;;13.46;48.89;101980.19;4944522;28;20027;-75
2022/06/05 05:02:03;;;;;;;10.60;6.68;;;;;;;14.50;47.06;101984.28;4956753;28;20031;-80
2022/06/05 05:04:29;;;;;;;13.93;7.53;;;;;;;16.35;42.69;101976.44;4957223;28;20049;-77
2022/06/05 05:06:54;;;;;;;9.40;6.82;;;;;;;17.87;38.58;101955.59;4956823;28;20843;-80
2022/06/05 05:09:20;;;;;;;11.75;7.15;;;;;;;18.87;36.58;101948.28;4960030;28;20051;-79
2022/06/05 05:11:46;;;;;;;8.93;6.15;;;;;;;19.83;35.21;101948.72;4950421;28;20086;-75
2022/06/05 05:14:12;;;;;;;7.00;5.15;;;;;;;20.97;32.42;101945.84;4941640;28;20103;-80
2022/06/05 05:16:39;;;;;;;7.70;5.40;;;;;;;21.13;31.46;101941.19;4970126;28;20122;-76
2022/06/05 05:19:05;;;;;;;8.60;5.82;;;;;;;21.61;30.98;101932.63;4962449;28;20058;-77
2022/06/05 05:21:31;;;;;;;10.70;6.53;;;;;;;21.83;30.98;101935.47;4963569;28;20510;-79
2022/06/05 05:23:56;;;;;;;8.63;5.20;;;;;;;22.70;29.22;101930.06;4964959;28;20042;-80
2022/06/05 05:26:25;;;;;;;7.82;5.40;;;;;;;22.61;29.06;101914.75;4962437;28;20043;-78
2022/06/05 05:28:51;;;;;;;10.10;6.00;;;;;;;22.29;29.30;101905.53;4963790;28;20047;-79
2022/06/05 05:31:20;;;;;;;10.98;6.07;;;;;;;21.90;29.94;101904.78;4943462;28;20031;-79
2022/06/05 05:33:48;;;;;;;8.60;5.63;;;;;;;20.86;31.75;101902.25;4970628;28;20047;-78
2022/06/05 05:36:14;;;;;;;7.30;5.97;;;;;;;19.29;33.96;101908.72;4960586;28;20062;-78
2022/06/05 05:42:04;;;;;;;7.88;6.05;;;;;;;18.50;36.33;101901.00;4960570;28;20154;-76
2022/06/05 05:44:09;;;;;;;9.50;6.32;;;;;;;17.72;37.26;101906.22;4975096;28;20045;-79
2022/06/05 05:46:35;;;;;;;9.52;5.88;;;;;;;17.81;36.95;101903.91;4944646;28;20039;-78
2022/06/05 05:49:00;;;;;;;7.63;5.93;;;;;;;17.20;38.44;101899.22;4976886;28;20078;-80
2022/06/05 05:51:26;;;;;;;6.93;5.45;;;;;;;17.12;39.68;101899.63;4950162;28;20042;-77
2022/06/05 05:53:51;;;;;;;11.27;6.05;;;;;;;17.68;38.16;101913.44;4966358;28;20640;-78
2022/06/05 05:56:17;;;;;;;11.23;5.57;;;;;;;18.92;36.21;101908.31;4968446;28;20054;-75
2022/06/05 05:58:42;;;;;;;8.90;5.55;;;;;;;19.66;33.72;101915.31;4963200;28;20053;-78
2022/06/05 06:01:10;;;;;;;6.47;5.22;;;;;;;20.73;33.50;101915.50;4948409;28;20027;-76
2022/06/05 06:03:36;;;;;;;8.23;5.63;;;;;;;21.70;30.25;101916.84;4976255;28;20047;-76
2022/06/05 06:06:02;;;;;;;6.82;4.75;;;;;;;21.45;30.65;101919.53;4961971;28;20046;-75
2022/06/05 06:08:29;;;;;;;8.32;4.68;;;;;;;21.82;30.90;101932.91;4974709;28;20072;-78
2022/06/05 06:10:54;;;;;;;7.38;5.53;;;;;;;22.99;29.08;101926.03;4961078;28;20070;-77
2022/06/05 06:13:21;;;;;;;8.52;4.93;;;;;;;23.22;27.63;101923.41;4969521;28;20070;-79
2022/06/05 06:15:47;;;;;;;9.82;4.20;;;;;;;23.14;27.77;101920.47;4953243;28;20045;-78
2022/06/05 06:18:13;;;;;;;7.20;4.55;;;;;;;22.96;28.43;101923.59;4963578;28;20047;-77
2022/06/05 06:20:38;;;;;;;8.07;5.10;;;;;;;21.83;29.69;101918.66;4968391;28;20038;-79
2022/06/05 06:23:04;;;;;;;7.28;4.22;;;;;;;21.72;30.18;101927.38;4943770;28;20039;-78
2022/06/05 06:25:29;;;;;;;6.63;4.72;;;;;;;21.73;29.86;101929.06;4960788;28;20508;-77
2022/06/05 06:27:55;;;;;;;6.53;4.70;;;;;;;23.93;27.11;101925.88;4949876;28;20541;-77
2022/06/05 06:30:21;;;;;;;6.82;3.95;;;;;;;26.23;24.35;101922.25;4964671;28;20035;-78
2022/06/05 06:32:46;;;;;;;4.90;4.25;;;;;;;25.86;23.43;101922.84;4974977;28;20474;-79
2022/06/05 06:35:12;;;;;;;4.90;3.60;;;;;;;24.55;25.07;101930.56;4964287;28;20129;-78
2022/06/05 06:37:38;;;;;;;5.35;3.70;;;;;;;23.69;26.33;101928.66;4965531;28;20047;-78
2022/06/05 06:40:04;;;;;;;5.72;4.15;;;;;;;22.46;28.01;101928.22;4957140;28;20046;-78
2022/06/05 06:42:29;;;;;;;5.28;4.20;;;;;;;23.29;26.36;101916.63;4975377;28;20051;-80
2022/06/05 06:44:56;;;;;;;6.28;3.85;;;;;;;23.21;26.29;101925.22;4962486;28;20036;-79
2022/06/05 06:47:23;;;;;;;5.07;3.88;;;;;;;22.61;27.15;101917.41;4955620;28;20472;-79
2022/06/05 06:49:48;;;;;;;5.15;3.97;;;;;;;22.48;27.09;101918.31;4966727;28;20487;-79
2022/06/05 06:52:14;;;;;;;5.45;3.55;;;;;;;23.22;27.02;101918.06;4963986;28;20047;-80
2022/06/05 06:54:40;;;;;;;4.03;3.60;;;;;;;22.86;26.80;101911.94;4964359;28;20085;-77
2022/06/05 06:57:06;;;;;;;5.93;4.18;;;;;;;23.30;26.73;101913.00;4943413;28;20031;-78
2022/06/05 06:59:32;;;;;;;5.30;3.58;;;;;;;24.09;25.67;101901.44;4971092;28;20035;-79
2022/06/05 07:01:57;;;;;;;5.80;4.13;;;;;;;26.07;22.85;101897.84;4958664;28;20524;-77
2022/06/05 07:04:23;;;;;;;10.27;3.78;;;;;;;25.62;23.63;101896.47;4972256;28;20151;-79
2022/06/05 07:06:48;;;;;;;5.10;3.22;;;;;;;25.94;23.82;101886.53;4959387;28;20480;-77
2022/06/05 07:09:14;;;;;;;4.65;3.13;;;;;;;27.04;22.19;101876.31;4959017;28;20038;-78
2022/06/05 07:11:43;;;;;;;5.03;3.47;;;;;;;27.30;21.13;101894.47;4943937;28;20035;-79
2022/06/05 07:14:09;;;;;;;7.68;3.78;;;;;;;26.58;22.51;101883.38;4955187;28;20039;-81
2022/06/05 07:16:36;;;;;;;4.22;3.33;;;;;;;25.92;23.08;101875.09;4960254;28;20039;-79
2022/06/05 07:19:02;;;;;;;4.97;3.20;;;;;;;26.66;22.63;101880.78;4954024;28;20049;-77
2022/06/05 07:21:28;;;;;;;3.40;3.00;;;;;;;26.12;22.32;101870.66;4975819;28;20239;-78
2022/06/05 07:23:55;;;;;;;3.53;3.22;;;;;;;26.37;22.93;101872.75;4959020;28;20038;-79
2022/06/05 07:26:22;;;;;;;4.03;3.63;;;;;;;25.81;23.24;101870.72;4941440;28;20051;-78
2022/06/05 07:28:49;;;;;;;3.53;3.10;;;;;;;25.74;23.52;101862.38;4961910;28;20047;-79
2022/06/05 07:31:17;;;;;;;7.93;3.13;;;;;;;26.31;22.39;101856.38;4961144;28;20044;-77
2022/06/05 07:33:42;;;;;;;5.47;3.88;;;;;;;26.13;22.83;101851.72;4955309;28;20035;-78
2022/06/05 07:36:11;;;;;;;6.10;3.58;;;;;;;25.40;23.89;101849.31;4968535;28;20042;-75
2022/06/05 07:38:37;;;;;;;5.70;3.50;;;;;;;25.42;23.74;101855.38;4954948;28;20055;-77
2022/06/05 07:41:05;;;;;;;4.28;3.42;;;;;;;25.24;23.65;101854.31;4954587;28;20046;-82
2022/06/05 07:43:31;;;;;;;4.97;3.45;;;;;;;24.51;25.07;101856.97;4970660;28;20035;-80
2022/06/05 07:45:59;;;;;;;5.93;4.13;;;;;;;24.00;25.67;101866.50;4955759;28;20058;-76
2022/06/05 07:48:25;;;;;;;4.80;3.72;;;;;;;23.67;26.29;101862.06;4954900;28;20045;-78
2022/06/05 07:56:39;;;;;;;4.63;3.42;;;;;;;21.66;29.74;101856.84;4969313;28;20098;-78
2022/06/05 07:59:05;;;;;;;4.60;4.03;;;;;;;21.34;30.05;101859.13;4935961;28;20546;-80
2022/06/05 08:01:31;;;;;;;4.28;3.47;;;;;;;20.98;30.28;101858.06;4962180;28;20090;-79
2022/06/05 08:03:56;;;;;;;4.05;3.75;;;;;;;20.78;30.73;101855.91;4956391;28;20554;-79
2022/06/05 08:06:22;;;;;;;3.85;3.50;;;;;;;20.62;32.38;101856.06;4962153;28;20032;-78
2022/06/05 08:08:47;;;;;;;3.95;3.28;;;;;;;21.83;31.33;101854.78;4959259;28;20057;-77
2022/06/05 08:11:13;;;;;;;6.38;4.32;;;;;;;22.91;29.48;101852.94;4956043;28;20027;-79
2022/06/05 08:13:38;;;;;;;4.03;3.10;;;;;;;24.62;26.46;101840.88;4940472;28;20409;-79
2022/06/05 08:16:04;;;;;;;4.47;3.90;;;;;;;25.35;24.41;101848.00;4954250;28;20042;-77
2022/06/05 08:18:30;;;;;;;4.05;3.75;;;;;;;24.72;25.09;101842.75;4940838;28;20065;-81
2022/06/05 08:20:56;;;;;;;4.63;3.65;;;;;;;24.72;26.11;101838.25;4956841;28;20030;-77
2022/06/05 08:23:22;;;;;;;5.88;4.03;;;;;;;23.45;27.18;101843.41;4969283;28;20050;-79
2022/06/05 08:25:48;;;;;;;4.53;3.92;;;;;;;22.19;29.62;101840.59;4942753;28;20204;-77
2022/06/05 08:28:13;;;;;;;6.05;3.80;;;;;;;22.47;28.80;101834.06;4954934;28;20232;-78
2022/06/05 08:30:39;;;;;;;8.60;3.95;;;;;;;22.64;28.63;101831.91;4941535;28;20605;-79
2022/06/05 08:33:05;;;;;;;5.50;3.60;;;;;;;22.67;28.71;101829.84;4957118;28;20153;-78
2022/06/05 08:35:30;;;;;;;4.50;4.07;;;;;;;23.09;27.69;101829.31;4953028;28;20097;-77
2022/06/05 08:43:41;;;;;;;5.05;3.72;;;;;;;26.17;24.01;101810.28;4972265;28;20047;-79
2022/06/05 08:46:15;;;;;;;;;;;;;;;25.82;24.08;101803.66;4954343;28;20389;-80
2022/06/05 08:48:56;;;;;;;6.63;3.33;;;;;;;25.37;24.83;101797.88;4961277;28;19925;-78
2022/06/05 08:51:52;;;;;;;4.78;3.67;;;;;;;25.80;24.20;101789.56;4938819;28;20029;-80
2022/06/05 08:54:22;;;;;;;4.57;3.33;;;;;;;25.40;24.91;101794.94;4954694;28;20261;-79
2022/06/05 08:56:55;;;;;;;3.92;3.42;;;;;;;25.69;24.17;101789.69;4956972;28;20042;-79
2022/06/05 08:59:28;;;;;;;4.20;3.15;;;;;;;26.61;22.93;101786.56;4956783;28;20203;-78
2022/06/05 09:02:01;;;;;;;5.63;3.70;;;;;;;26.14;23.88;101783.78;4972068;28;20046;-80
2022/06/05 09:04:27;;;;;;;3.90;3.55;;;;;;;25.52;24.96;101776.97;4958532;28;20058;-79
2022/06/05 09:07:00;;;;;;;6.50;3.28;;;;;;;26.40;23.82;101769.78;4969659;28;20043;-79
2022/06/05 09:09:37;;;;;;;7.40;3.17;;;;;;;26.66;24.06;101765.50;4970342;28;20047;-79
2022/06/05 09:12:14;;;;;;;3.88;3.50;;;;;;;26.89;23.19;101751.72;4944899;28;20289;-78
2022/06/05 09:14:46;;;;;;;3.08;2.78;;;;;;;26.73;23.57;101746.16;4969687;28;20043;-80
2022/06/05 09:17:17;;;;;;;4.10;2.95;;;;;;;25.83;24.76;101737.53;4967082;28;20046;-77
2022/06/05 09:19:44;;;;;;;6.00;3.40;;;;;;;26.05;24.95;101729.22;4956648;28;20045;-78
2022/06/05 09:22:19;;;;;;;7.35;2.80;;;;;;;26.86;23.59;101719.84;4953966;28;20039;-77
2022/06/05 09:25:03;;;;;;;4.72;2.67;;;;;;;26.75;23.81;101726.22;4940780;28;20062;-77
2022/06/05 09:27:41;;;;;;;3.15;2.47;;;;;;;26.21;24.11;101719.75;4970792;28;20150;-76
2022/06/05 09:30:10;;;;;;;2.97;2.67;;;;;;;25.67;25.30;101722.06;4954408;28;20042;-78
2022/06/05 09:32:56;;;;;;;4.72;3.20;;;;;;;24.69;26.55;101720.09;4958128;28;20214;-79
2022/06/05 09:35:41;;;;;;;4.50;2.92;;;;;;;24.96;26.93;101714.13;4946650;28;20031;-78
2022/06/05 09:38:35;;;;;;;4.32;3.40;;;;;;;24.68;27.04;101708.53;4976030;28;20038;-77
2022/06/05 09:41:12;;;;;;;5.82;3.40;;;;;;;24.64;27.00;101707.97;4975993;28;20042;-77
2022/06/05 09:43:58;;;;;;;4.28;3.53;;;;;;;23.77;28.18;101702.03;4971191;28;20100;-78
2022/06/05 09:46:53;;;;;;;4.00;3.63;;;;;;;23.61;28.15;101703.31;4960025;28;20050;-78
2022/06/05 09:49:34;;;;;;;5.30;3.70;;;;;;;24.00;28.06;101703.63;4974961;28;20035;-78
2022/06/05 09:52:13;;;;;;;4.57;3.20;;;;;;;23.41;28.66;101707.63;4959964;28;20027;-80
2022/06/05 09:55:08;;;;;;;4.68;3.50;;;;;;;23.71;28.98;101707.88;4958248;28;20126;-77
2022/06/05 09:58:25;;;;;;;3.63;3.28;;;;;;;24.40;27.48;101699.38;4960841;28;20126;-78
2022/06/05 10:00:59;;;;;;;3.83;3.22;;;;;;;24.92;26.74;101681.44;4904438;29;20047;-78
2022/06/05 10:03:29;;;;;;;5.82;3.35;;;;;;;24.59;27.06;101680.81;4960292;28;20058;-79
2022/06/05 10:06:11;;;;;;;3.08;2.78;;;;;;;24.19;27.25;101673.53;4945401;28;20057;-76
2022/06/05 10:08:43;;;;;;;5.57;3.03;;;;;;;24.40;27.75;101665.47;4965451;28;20172;-80
2022/06/05 10:11:23;;;;;;;3.75;2.53;;;;;;;24.75;27.04;101674.06;4974126;28;20093;-79
2022/06/05 10:14:17;;;;;;;5.22;3.47;;;;;;;24.69;27.31;101677.31;4948756;28;20047;-78
2022/06/05 10:16:58;;;;;;;3.95;3.30;;;;;;;24.89;27.24;101673.72;4947315;28;20050;-80
2022/06/05 10:19:33;;;;;;;3.93;3.60;;;;;;;25.10;26.83;101670.13;4976491;28;20120;-80
2022/06/05 10:22:12;;;;;;;4.18;3.80;;;;;;;25.15;27.06;101667.88;4958138;28;20357;-80
2022/06/05 10:24:51;;;;;;;5.47;4.18;;;;;;;24.43;28.05;101657.22;4974776;28;20078;-78
2022/06/05 10:27:19;;;;;;;6.95;3.97;;;;;;;24.52;28.48;101647.56;4957922;28;20043;-82
2022/06/05 10:29:49;;;;;;;7.22;3.65;;;;;;;24.27;28.23;101653.34;4960900;28;20042;-78
2022/06/05 10:32:43;;;;;;;5.75;3.65;;;;;;;24.92;27.79;101653.88;4944062;28;20050;-77
2022/06/05 10:35:44;;;;;;;7.63;3.78;;;;;;;24.49;27.75;101655.84;4964905;28;20050;-79
2022/06/05 10:38:36;;;;;;;7.30;3.55;;;;;;;24.33;26.89;101648.31;4959742;28;20727;-79
2022/06/05 10:41:16;;;;;;;4.80;3.10;;;;;;;24.84;27.79;101639.38;4974332;28;20050;-79
2022/06/05 10:43:43;;;;;;;3.97;3.17;;;;;;;25.17;27.45;101644.50;4959007;28;20042;-78
2022/06/05 10:46:21;;;;;;;3.33;2.83;;;;;;;25.55;26.18;101646.38;4961945;28;20027;-78
2022/06/05 10:48:50;;;;;;;3.22;3.03;;;;;;;25.49;25.47;101654.97;4976794;28;20583;-78
2022/06/05 10:51:53;;;;;;;5.78;2.90;;;;;;;25.49;25.81;101654.97;4952000;28;20042;-80
2022/06/05 10:54:22;;;;;;;3.30;2.60;;;;;;;25.76;26.95;101651.59;4965022;28;20125;-80
2022/06/05 10:56:55;;;;;;;7.00;2.75;;;;;;;25.76;25.37;101656.09;4962254;28;20033;-80
2022/06/05 10:59:46;;;;;;;3.30;2.92;;;;;;;25.40;26.08;101648.63;4971423;28;20075;-78
2022/06/05 11:02:30;;;;;;;2.47;2.00;;;;;;;25.36;25.98;101655.22;4962656;28;20548;-77
2022/06/05 11:05:16;;;;;;;4.40;3.15;;;;;;;24.48;27.20;101653.31;4975436;28;20055;-79
2022/06/05 11:08:15;;;;;;;3.25;2.58;;;;;;;24.84;26.99;101660.75;4972769;28;20051;-79
2022/06/05 11:13:57;;;;;;;2.58;2.38;;;;;;;24.59;26.40;101640.72;4974991;28;20043;-79
2022/06/05 11:16:27;;;;;;;3.22;2.85;;;;;;;23.09;28.33;101640.88;4956424;28;20030;-78
2022/06/05 11:19:32;;;;;;;6.00;2.60;;;;;;;23.06;28.70;101634.97;4959233;28;20039;-78
2022/06/05 11:22:01;;;;;;;3.13;2.20;;;;;;;22.84;28.67;101639.34;4931653;28;20057;-77
2022/06/05 11:24:39;;;;;;;3.97;2.70;;;;;;;23.37;27.93;101625.31;4975420;28;20129;-79
2022/06/05 11:27:31;;;;;;;3.63;2.38;;;;;;;24.30;26.51;101611.16;4946360;28;20031;-81
2022/06/05 11:30:03;;;;;;;2.53;2.03;;;;;;;24.49;26.01;101606.91;4945505;28;20054;-80
2022/06/05 11:32:40;;;;;;;3.60;2.45;;;;;;;24.62;25.77;101600.34;4974376;28;20046;-77
2022/06/05 11:35:42;;;;;;;3.00;2.40;;;;;;;24.66;26.04;101598.25;4973809;28;20030;-79
2022/06/05 11:38:18;;;;;;;;;;;;;;;25.31;25.69;101605.78;4932424;28;20050;-79
2022/06/05 11:40:57;;;;;;;2.58;2.38;;;;;;;25.31;25.99;101598.63;4952870;28;20242;-82
2022/06/05 11:43:35;;;;;;;2.75;2.55;;;;;;;24.80;25.82;101605.03;4973163;28;20050;-79
2022/06/05 11:46:22;;;;;;;3.40;2.78;;;;;;;24.29;26.73;101603.28;4963801;28;20035;-81
2022/06/05 11:49:07;;;;;;;2.08;1.90;;;;;;;24.19;27.28;101596.09;4958926;28;20042;-76
2022/06/05 11:51:59;;;;;;;3.60;2.50;;;;;;;24.18;26.67;101586.38;4975916;28;20528;-79
2022/06/05 11:54:47;;;;;;;2.50;2.20;;;;;;;24.44;25.94;101577.94;4955275;28;20059;-79
2022/06/05 11:57:24;;;;;;;6.82;3.17;;;;;;;25.02;25.86;101577.25;4963883;28;20098;-79
2022/06/05 12:00:14;;;;;;;5.57;1.75;;;;;;;25.49;24.94;101566.66;4958924;28;20031;-78
2022/06/05 12:03:10;;;;;;;2.90;2.05;;;;;;;25.69;24.34;101554.09;4956484;28;20051;-81
2022/06/05 12:05:45;;;;;;;2.28;1.98;;;;;;;25.74;24.08;101551.00;4974427;28;20035;-80
2022/06/05 12:08:15;;;;;;;3.50;2.33;;;;;;;25.52;23.87;101538.78;4968752;28;20690;-79